sensor_id;sensor_type;location;lat;lon;timestamp;P1;durP1;ratioP1;P2;durP2;ratioP2
42662;SDS011;44330;51.360;6.686;2022-12-04T00:01:41;58.97;;;25.27;;
42662;SDS011;44330;51.360;6.686;2022-12-04T00:04:06;56.00;;;24.30;;
42662;SDS011;44330;51.360;6.686;2022-12-04T00:06:32;65.20;;;27.00;;
42662;SDS011;44330;51.360;6.686;2022-12-04T00:08:58;58.85;;;25.80;;
42662;SDS011;44330;51.360;6.686;2022-12-04T00:11:25;58.03;;;23.02;;
42662;SDS011;44330;51.360;6.686;2022-12-04T00:13:53;57.17;;;20.85;;
42662;SDS011;44330;51.360;6.686;2022-12-04T00:16:20;52.00;;;22.25;;
42662;SDS011;44330;51.360;6.686;2022-12-04T00:18:47;54.80;;;21.73;;
42662;SDS011;44330;51.360;6.686;2022-12-04T00:21:13;47.40;;;21.33;;
42662;SDS011;44330;51.360;6.686;2022-12-04T00:23:40;58.05;;;23.48;;
42662;SDS011;44330;51.360;6.686;2022-12-04T00:26:07;53.80;;;24.35;;
42662;SDS011;44330;51.360;6.686;2022-12-04T00:28:35;50.33;;;22.52;;
42662;SDS011;44330;51.360;6.686;2022-12-04T00:31:10;53.42;;;20.88;;
42662;SDS011;44330;51.360;6.686;2022-12-04T00:33:37;57.13;;;22.63;;
42662;SDS011;44330;51.360;6.686;2022-12-04T00:36:04;50.35;;;21.33;;
42662;SDS011;44330;51.360;6.686;2022-12-04T00:38:32;48.47;;;20.77;;
42662;SDS011;44330;51.360;6.686;2022-12-04T00:40:58;46.80;;;20.45;;
42662;SDS011;44330;51.360;6.686;2022-12-04T00:43:24;49.70;;;20.58;;
42662;SDS011;44330;51.360;6.686;2022-12-04T00:45:50;52.83;;;21.77;;
42662;SDS011;44330;51.360;6.686;2022-12-04T00:48:16;48.40;;;19.80;;
42662;SDS011;44330;51.360;6.686;2022-12-04T00:50:41;53.35;;;22.42;;
42662;SDS011;44330;51.360;6.686;2022-12-04T00:53:07;62.00;;;24.52;;
42662;SDS011;44330;51.360;6.686;2022-12-04T00:55:32;63.45;;;24.65;;
42662;SDS011;44330;51.360;6.686;2022-12-04T00:58:01;44.30;;;17.85;;
42662;SDS011;44330;51.360;6.686;2022-12-04T01:00:26;54.67;;;21.20;;
42662;SDS011;44330;51.360;6.686;2022-12-04T01:02:52;72.40;;;28.95;;
42662;SDS011;44330;51.360;6.686;2022-12-04T01:05:17;143.77;;;47.33;;
42662;SDS011;44330;51.360;6.686;2022-12-04T01:07:43;107.93;;;39.30;;
42662;SDS011;44330;51.360;6.686;2022-12-04T01:10:10;68.05;;;26.58;;
42662;SDS011;44330;51.360;6.686;2022-12-04T01:12:36;62.10;;;25.02;;
42662;SDS011;44330;51.360;6.686;2022-12-04T01:15:02;57.72;;;23.25;;
42662;SDS011;44330;51.360;6.686;2022-12-04T01:17:28;63.33;;;23.48;;
42662;SDS011;44330;51.360;6.686;2022-12-04T01:19:53;61.20;;;25.13;;
42662;SDS011;44330;51.360;6.686;2022-12-04T01:22:19;58.88;;;23.17;;
42662;SDS011;44330;51.360;6.686;2022-12-04T01:24:44;54.65;;;21.63;;
42662;SDS011;44330;51.360;6.686;2022-12-04T01:27:10;57.58;;;23.20;;
42662;SDS011;44330;51.360;6.686;2022-12-04T01:29:36;56.22;;;22.95;;
42662;SDS011;44330;51.360;6.686;2022-12-04T01:32:02;56.30;;;21.95;;
42662;SDS011;44330;51.360;6.686;2022-12-04T01:34:27;50.97;;;21.27;;
42662;SDS011;44330;51.360;6.686;2022-12-04T01:36:56;50.30;;;22.13;;
42662;SDS011;44330;51.360;6.686;2022-12-04T01:39:21;64.00;;;26.42;;
42662;SDS011;44330;51.360;6.686;2022-12-04T01:41:47;73.82;;;29.95;;
42662;SDS011;44330;51.360;6.686;2022-12-04T01:44:14;62.80;;;25.65;;
42662;SDS011;44330;51.360;6.686;2022-12-04T01:46:40;56.88;;;23.75;;
42662;SDS011;44330;51.360;6.686;2022-12-04T01:49:08;59.80;;;23.45;;
42662;SDS011;44330;51.360;6.686;2022-12-04T01:51:39;62.42;;;23.90;;
42662;SDS011;44330;51.360;6.686;2022-12-04T01:54:10;61.83;;;25.30;;
42662;SDS011;44330;51.360;6.686;2022-12-04T01:56:42;58.92;;;24.38;;
42662;SDS011;44330;51.360;6.686;2022-12-04T01:59:13;61.33;;;24.80;;
42662;SDS011;44330;51.360;6.686;2022-12-04T02:01:43;58.60;;;23.48;;
42662;SDS011;44330;51.360;6.686;2022-12-04T02:04:17;56.95;;;23.85;;
42662;SDS011;44330;51.360;6.686;2022-12-04T02:06:44;55.47;;;24.27;;
42662;SDS011;44330;51.360;6.686;2022-12-04T02:09:09;55.42;;;22.73;;
42662;SDS011;44330;51.360;6.686;2022-12-04T02:11:43;51.22;;;22.35;;
42662;SDS011;44330;51.360;6.686;2022-12-04T02:14:22;55.75;;;23.40;;
42662;SDS011;44330;51.360;6.686;2022-12-04T02:22:50;52.88;;;21.90;;
42662;SDS011;44330;51.360;6.686;2022-12-04T02:30:27;52.22;;;21.00;;
42662;SDS011;44330;51.360;6.686;2022-12-04T02:33:01;64.68;;;25.58;;
42662;SDS011;44330;51.360;6.686;2022-12-04T02:36:18;63.20;;;26.20;;
42662;SDS011;44330;51.360;6.686;2022-12-04T02:38:37;58.17;;;23.15;;
42662;SDS011;44330;51.360;6.686;2022-12-04T02:41:16;58.00;;;22.67;;
42662;SDS011;44330;51.360;6.686;2022-12-04T02:43:50;50.42;;;21.35;;
42662;SDS011;44330;51.360;6.686;2022-12-04T02:46:29;52.58;;;23.17;;
42662;SDS011;44330;51.360;6.686;2022-12-04T02:49:02;61.65;;;24.17;;
42662;SDS011;44330;51.360;6.686;2022-12-04T02:51:32;48.17;;;20.88;;
42662;SDS011;44330;51.360;6.686;2022-12-04T02:54:04;57.42;;;22.75;;
42662;SDS011;44330;51.360;6.686;2022-12-04T02:56:36;57.38;;;23.60;;
42662;SDS011;44330;51.360;6.686;2022-12-04T02:59:17;49.67;;;21.77;;
42662;SDS011;44330;51.360;6.686;2022-12-04T03:01:49;66.68;;;25.40;;
42662;SDS011;44330;51.360;6.686;2022-12-04T03:04:22;53.63;;;22.25;;
42662;SDS011;44330;51.360;6.686;2022-12-04T03:06:52;55.55;;;23.98;;
42662;SDS011;44330;51.360;6.686;2022-12-04T03:09:23;56.67;;;25.55;;
42662;SDS011;44330;51.360;6.686;2022-12-04T03:12:06;56.30;;;23.38;;
42662;SDS011;44330;51.360;6.686;2022-12-04T03:14:45;61.92;;;24.60;;
42662;SDS011;44330;51.360;6.686;2022-12-04T03:17:20;40.95;;;17.63;;
42662;SDS011;44330;51.360;6.686;2022-12-04T03:19:53;64.38;;;23.35;;
42662;SDS011;44330;51.360;6.686;2022-12-04T03:22:22;52.85;;;21.75;;
42662;SDS011;44330;51.360;6.686;2022-12-04T03:24:52;64.38;;;25.73;;
42662;SDS011;44330;51.360;6.686;2022-12-04T03:30:19;65.75;;;24.63;;
42662;SDS011;44330;51.360;6.686;2022-12-04T03:35:25;52.10;;;21.55;;
42662;SDS011;44330;51.360;6.686;2022-12-04T03:40:41;64.80;;;23.50;;
42662;SDS011;44330;51.360;6.686;2022-12-04T03:43:15;51.97;;;21.40;;
42662;SDS011;44330;51.360;6.686;2022-12-04T03:48:50;48.60;;;21.30;;
42662;SDS011;44330;51.360;6.686;2022-12-04T03:54:04;48.58;;;20.25;;
42662;SDS011;44330;51.360;6.686;2022-12-04T03:56:37;45.70;;;20.80;;
42662;SDS011;44330;51.360;6.686;2022-12-04T03:59:08;48.08;;;20.20;;
42662;SDS011;44330;51.360;6.686;2022-12-04T04:01:43;50.53;;;20.95;;
42662;SDS011;44330;51.360;6.686;2022-12-04T04:06:41;47.70;;;20.17;;
42662;SDS011;44330;51.360;6.686;2022-12-04T04:09:14;47.00;;;20.92;;
42662;SDS011;44330;51.360;6.686;2022-12-04T04:12:06;48.53;;;21.17;;
42662;SDS011;44330;51.360;6.686;2022-12-04T04:17:28;47.00;;;20.58;;
42662;SDS011;44330;51.360;6.686;2022-12-04T04:20:16;48.42;;;21.05;;
42662;SDS011;44330;51.360;6.686;2022-12-04T04:23:05;46.72;;;19.95;;
42662;SDS011;44330;51.360;6.686;2022-12-04T04:25:52;45.15;;;19.40;;
42662;SDS011;44330;51.360;6.686;2022-12-04T04:28:28;52.50;;;21.52;;
42662;SDS011;44330;51.360;6.686;2022-12-04T04:30:58;44.97;;;19.70;;
42662;SDS011;44330;51.360;6.686;2022-12-04T04:33:31;43.00;;;18.95;;
42662;SDS011;44330;51.360;6.686;2022-12-04T04:36:07;43.90;;;19.27;;
42662;SDS011;44330;51.360;6.686;2022-12-04T04:38:50;42.50;;;19.58;;
42662;SDS011;44330;51.360;6.686;2022-12-04T04:41:26;46.80;;;18.92;;
42662;SDS011;44330;51.360;6.686;2022-12-04T04:44:10;47.45;;;19.95;;
42662;SDS011;44330;51.360;6.686;2022-12-04T04:46:43;41.17;;;18.40;;
42662;SDS011;44330;51.360;6.686;2022-12-04T04:49:13;45.67;;;18.95;;
42662;SDS011;44330;51.360;6.686;2022-12-04T04:51:41;41.10;;;17.02;;
42662;SDS011;44330;51.360;6.686;2022-12-04T04:54:08;42.17;;;18.45;;
42662;SDS011;44330;51.360;6.686;2022-12-04T04:56:40;43.25;;;18.00;;
42662;SDS011;44330;51.360;6.686;2022-12-04T04:59:10;41.85;;;16.92;;
42662;SDS011;44330;51.360;6.686;2022-12-04T05:01:37;37.78;;;17.35;;
42662;SDS011;44330;51.360;6.686;2022-12-04T05:04:04;37.85;;;17.25;;
42662;SDS011;44330;51.360;6.686;2022-12-04T05:06:30;43.05;;;17.80;;
42662;SDS011;44330;51.360;6.686;2022-12-04T05:08:56;37.38;;;17.05;;
42662;SDS011;44330;51.360;6.686;2022-12-04T05:11:21;36.55;;;16.52;;
42662;SDS011;44330;51.360;6.686;2022-12-04T05:13:47;40.47;;;16.77;;
42662;SDS011;44330;51.360;6.686;2022-12-04T05:16:13;36.63;;;16.98;;
42662;SDS011;44330;51.360;6.686;2022-12-04T05:18:39;41.63;;;17.42;;
42662;SDS011;44330;51.360;6.686;2022-12-04T05:21:25;40.80;;;18.05;;
42662;SDS011;44330;51.360;6.686;2022-12-04T05:23:51;37.65;;;16.65;;
42662;SDS011;44330;51.360;6.686;2022-12-04T05:26:16;36.50;;;15.95;;
42662;SDS011;44330;51.360;6.686;2022-12-04T05:28:42;35.20;;;16.50;;
42662;SDS011;44330;51.360;6.686;2022-12-04T05:31:07;38.35;;;16.08;;
42662;SDS011;44330;51.360;6.686;2022-12-04T05:33:33;36.90;;;15.73;;
42662;SDS011;44330;51.360;6.686;2022-12-04T05:36:03;37.28;;;16.90;;
42662;SDS011;44330;51.360;6.686;2022-12-04T05:38:31;34.65;;;15.85;;
42662;SDS011;44330;51.360;6.686;2022-12-04T05:40:57;31.65;;;14.70;;
42662;SDS011;44330;51.360;6.686;2022-12-04T05:43:24;31.58;;;15.05;;
42662;SDS011;44330;51.360;6.686;2022-12-04T05:45:49;38.35;;;15.63;;
42662;SDS011;44330;51.360;6.686;2022-12-04T05:48:15;33.58;;;14.85;;
42662;SDS011;44330;51.360;6.686;2022-12-04T05:50:41;38.42;;;15.40;;
42662;SDS011;44330;51.360;6.686;2022-12-04T05:53:06;32.67;;;14.90;;
42662;SDS011;44330;51.360;6.686;2022-12-04T05:55:32;34.45;;;15.77;;
42662;SDS011;44330;51.360;6.686;2022-12-04T05:57:57;35.45;;;14.48;;
42662;SDS011;44330;51.360;6.686;2022-12-04T06:00:23;32.17;;;14.80;;
42662;SDS011;44330;51.360;6.686;2022-12-04T06:02:48;34.58;;;15.25;;
42662;SDS011;44330;51.360;6.686;2022-12-04T06:05:14;33.05;;;14.48;;
42662;SDS011;44330;51.360;6.686;2022-12-04T06:07:40;37.85;;;15.57;;
42662;SDS011;44330;51.360;6.686;2022-12-04T06:10:06;34.55;;;14.27;;
42662;SDS011;44330;51.360;6.686;2022-12-04T06:12:31;34.38;;;15.30;;
42662;SDS011;44330;51.360;6.686;2022-12-04T06:14:57;35.08;;;15.25;;
42662;SDS011;44330;51.360;6.686;2022-12-04T06:17:22;33.72;;;14.35;;
42662;SDS011;44330;51.360;6.686;2022-12-04T06:19:48;41.53;;;15.50;;
42662;SDS011;44330;51.360;6.686;2022-12-04T06:22:14;33.35;;;14.32;;
42662;SDS011;44330;51.360;6.686;2022-12-04T06:24:39;37.42;;;15.35;;
42662;SDS011;44330;51.360;6.686;2022-12-04T06:27:05;37.50;;;15.18;;
42662;SDS011;44330;51.360;6.686;2022-12-04T06:29:30;32.67;;;15.00;;
42662;SDS011;44330;51.360;6.686;2022-12-04T06:31:56;31.27;;;13.52;;
42662;SDS011;44330;51.360;6.686;2022-12-04T06:34:22;32.67;;;14.27;;
42662;SDS011;44330;51.360;6.686;2022-12-04T06:36:47;31.33;;;14.68;;
42662;SDS011;44330;51.360;6.686;2022-12-04T06:39:13;30.67;;;14.95;;
42662;SDS011;44330;51.360;6.686;2022-12-04T06:41:38;32.20;;;14.32;;
42662;SDS011;44330;51.360;6.686;2022-12-04T06:44:04;32.40;;;14.27;;
42662;SDS011;44330;51.360;6.686;2022-12-04T06:46:30;31.63;;;14.63;;
42662;SDS011;44330;51.360;6.686;2022-12-04T06:48:58;31.20;;;14.95;;
42662;SDS011;44330;51.360;6.686;2022-12-04T06:51:26;30.55;;;14.45;;
42662;SDS011;44330;51.360;6.686;2022-12-04T06:53:53;32.85;;;14.40;;
42662;SDS011;44330;51.360;6.686;2022-12-04T06:56:20;35.05;;;14.18;;
42662;SDS011;44330;51.360;6.686;2022-12-04T06:58:48;33.25;;;14.05;;
42662;SDS011;44330;51.360;6.686;2022-12-04T07:01:17;23.92;;;10.80;;
42662;SDS011;44330;51.360;6.686;2022-12-04T07:03:44;31.42;;;13.88;;
42662;SDS011;44330;51.360;6.686;2022-12-04T07:06:21;30.83;;;13.60;;
42662;SDS011;44330;51.360;6.686;2022-12-04T07:08:56;34.47;;;15.25;;
42662;SDS011;44330;51.360;6.686;2022-12-04T07:11:24;33.75;;;14.88;;
42662;SDS011;44330;51.360;6.686;2022-12-04T07:13:50;30.52;;;14.80;;
42662;SDS011;44330;51.360;6.686;2022-12-04T07:16:17;30.52;;;14.40;;
42662;SDS011;44330;51.360;6.686;2022-12-04T07:18:44;31.90;;;14.20;;
42662;SDS011;44330;51.360;6.686;2022-12-04T07:21:12;28.52;;;13.32;;
42662;SDS011;44330;51.360;6.686;2022-12-04T07:23:40;31.20;;;14.48;;
42662;SDS011;44330;51.360;6.686;2022-12-04T07:26:06;27.48;;;13.18;;
42662;SDS011;44330;51.360;6.686;2022-12-04T07:28:34;29.80;;;13.43;;
42662;SDS011;44330;51.360;6.686;2022-12-04T07:31:04;29.63;;;13.93;;
42662;SDS011;44330;51.360;6.686;2022-12-04T07:33:31;34.20;;;14.73;;
42662;SDS011;44330;51.360;6.686;2022-12-04T07:35:57;27.67;;;13.45;;
42662;SDS011;44330;51.360;6.686;2022-12-04T07:38:24;26.88;;;12.55;;
42662;SDS011;44330;51.360;6.686;2022-12-04T07:40:50;31.67;;;13.65;;
42662;SDS011;44330;51.360;6.686;2022-12-04T07:43:19;25.85;;;11.90;;
42662;SDS011;44330;51.360;6.686;2022-12-04T07:45:44;24.55;;;12.25;;
42662;SDS011;44330;51.360;6.686;2022-12-04T07:48:10;22.08;;;10.98;;
42662;SDS011;44330;51.360;6.686;2022-12-04T07:50:35;24.73;;;12.65;;
42662;SDS011;44330;51.360;6.686;2022-12-04T07:53:01;26.17;;;12.75;;
42662;SDS011;44330;51.360;6.686;2022-12-04T07:55:26;21.50;;;10.95;;
42662;SDS011;44330;51.360;6.686;2022-12-04T07:57:52;24.73;;;12.05;;
42662;SDS011;44330;51.360;6.686;2022-12-04T08:00:18;25.48;;;11.75;;
42662;SDS011;44330;51.360;6.686;2022-12-04T08:02:43;26.08;;;12.38;;
42662;SDS011;44330;51.360;6.686;2022-12-04T08:05:09;25.00;;;12.25;;
42662;SDS011;44330;51.360;6.686;2022-12-04T08:07:34;26.00;;;12.95;;
42662;SDS011;44330;51.360;6.686;2022-12-04T08:10:00;24.75;;;12.88;;
42662;SDS011;44330;51.360;6.686;2022-12-04T08:12:25;26.92;;;13.05;;
42662;SDS011;44330;51.360;6.686;2022-12-04T08:14:51;24.38;;;12.23;;
42662;SDS011;44330;51.360;6.686;2022-12-04T08:17:17;21.08;;;10.63;;
42662;SDS011;44330;51.360;6.686;2022-12-04T08:19:42;22.02;;;11.02;;
42662;SDS011;44330;51.360;6.686;2022-12-04T08:22:08;23.27;;;10.95;;
42662;SDS011;44330;51.360;6.686;2022-12-04T08:24:34;23.30;;;12.15;;
42662;SDS011;44330;51.360;6.686;2022-12-04T08:27:00;26.20;;;11.05;;
42662;SDS011;44330;51.360;6.686;2022-12-04T08:29:25;23.35;;;11.00;;
42662;SDS011;44330;51.360;6.686;2022-12-04T08:31:51;19.65;;;10.77;;
42662;SDS011;44330;51.360;6.686;2022-12-04T08:34:16;19.25;;;10.35;;
42662;SDS011;44330;51.360;6.686;2022-12-04T08:36:42;24.38;;;12.07;;
42662;SDS011;44330;51.360;6.686;2022-12-04T08:39:08;21.85;;;11.00;;
42662;SDS011;44330;51.360;6.686;2022-12-04T08:41:35;24.80;;;11.27;;
42662;SDS011;44330;51.360;6.686;2022-12-04T08:44:00;24.58;;;11.57;;
42662;SDS011;44330;51.360;6.686;2022-12-04T08:46:26;24.25;;;11.68;;
42662;SDS011;44330;51.360;6.686;2022-12-04T08:48:53;25.38;;;11.63;;
42662;SDS011;44330;51.360;6.686;2022-12-04T08:51:20;22.48;;;11.20;;
42662;SDS011;44330;51.360;6.686;2022-12-04T08:53:51;25.42;;;12.20;;
42662;SDS011;44330;51.360;6.686;2022-12-04T08:56:20;21.85;;;12.18;;
42662;SDS011;44330;51.360;6.686;2022-12-04T08:58:47;25.15;;;12.27;;
42662;SDS011;44330;51.360;6.686;2022-12-04T09:01:12;21.83;;;11.30;;
42662;SDS011;44330;51.360;6.686;2022-12-04T09:03:39;21.65;;;11.15;;
42662;SDS011;44330;51.360;6.686;2022-12-04T09:06:05;23.13;;;11.45;;
42662;SDS011;44330;51.360;6.686;2022-12-04T09:08:32;19.80;;;10.77;;
42662;SDS011;44330;51.360;6.686;2022-12-04T09:11:12;21.15;;;10.77;;
42662;SDS011;44330;51.360;6.686;2022-12-04T09:13:39;20.25;;;10.73;;
42662;SDS011;44330;51.360;6.686;2022-12-04T09:16:06;25.60;;;12.25;;
42662;SDS011;44330;51.360;6.686;2022-12-04T09:18:33;20.33;;;10.73;;
42662;SDS011;44330;51.360;6.686;2022-12-04T09:21:01;22.65;;;11.25;;
42662;SDS011;44330;51.360;6.686;2022-12-04T09:23:29;20.67;;;11.75;;
42662;SDS011;44330;51.360;6.686;2022-12-04T09:25:55;21.55;;;10.80;;
42662;SDS011;44330;51.360;6.686;2022-12-04T09:28:20;22.70;;;11.73;;
42662;SDS011;44330;51.360;6.686;2022-12-04T09:31:09;22.33;;;11.13;;
42662;SDS011;44330;51.360;6.686;2022-12-04T09:33:34;22.13;;;10.70;;
42662;SDS011;44330;51.360;6.686;2022-12-04T09:36:00;22.15;;;11.43;;
42662;SDS011;44330;51.360;6.686;2022-12-04T09:38:26;21.45;;;11.45;;
42662;SDS011;44330;51.360;6.686;2022-12-04T09:43:48;22.23;;;11.20;;
42662;SDS011;44330;51.360;6.686;2022-12-04T09:49:01;23.20;;;11.13;;
42662;SDS011;44330;51.360;6.686;2022-12-04T09:51:30;21.45;;;10.75;;
42662;SDS011;44330;51.360;6.686;2022-12-04T09:54:02;17.63;;;8.60;;
42662;SDS011;44330;51.360;6.686;2022-12-04T09:56:33;20.63;;;11.38;;
42662;SDS011;44330;51.360;6.686;2022-12-04T10:02:16;25.92;;;10.90;;
42662;SDS011;44330;51.360;6.686;2022-12-04T10:04:52;21.58;;;11.25;;
42662;SDS011;44330;51.360;6.686;2022-12-04T10:07:25;19.25;;;10.80;;
42662;SDS011;44330;51.360;6.686;2022-12-04T10:10:05;22.23;;;10.88;;
42662;SDS011;44330;51.360;6.686;2022-12-04T10:12:53;17.90;;;10.18;;
42662;SDS011;44330;51.360;6.686;2022-12-04T10:16:03;20.52;;;10.43;;
42662;SDS011;44330;51.360;6.686;2022-12-04T10:19:09;22.52;;;11.43;;
42662;SDS011;44330;51.360;6.686;2022-12-04T10:29:49;23.40;;;12.77;;
42662;SDS011;44330;51.360;6.686;2022-12-04T10:32:27;25.50;;;12.10;;
42662;SDS011;44330;51.360;6.686;2022-12-04T10:34:56;21.67;;;11.20;;
42662;SDS011;44330;51.360;6.686;2022-12-04T10:37:27;26.08;;;12.85;;
42662;SDS011;44330;51.360;6.686;2022-12-04T10:42:21;23.40;;;11.85;;
42662;SDS011;44330;51.360;6.686;2022-12-04T10:44:55;20.65;;;11.15;;
42662;SDS011;44330;51.360;6.686;2022-12-04T10:47:21;21.95;;;11.43;;
42662;SDS011;44330;51.360;6.686;2022-12-04T10:49:57;22.25;;;11.75;;
42662;SDS011;44330;51.360;6.686;2022-12-04T10:52:24;22.15;;;10.60;;
42662;SDS011;44330;51.360;6.686;2022-12-04T10:54:51;22.55;;;11.23;;
42662;SDS011;44330;51.360;6.686;2022-12-04T10:57:44;24.55;;;12.18;;
42662;SDS011;44330;51.360;6.686;2022-12-04T11:02:54;21.60;;;11.00;;
42662;SDS011;44330;51.360;6.686;2022-12-04T11:07:50;23.52;;;11.88;;
42662;SDS011;44330;51.360;6.686;2022-12-04T11:15:43;24.85;;;12.68;;
42662;SDS011;44330;51.360;6.686;2022-12-04T11:18:30;24.20;;;12.57;;
42662;SDS011;44330;51.360;6.686;2022-12-04T11:21:04;23.00;;;12.38;;
42662;SDS011;44330;51.360;6.686;2022-12-04T11:23:46;25.42;;;12.75;;
42662;SDS011;44330;51.360;6.686;2022-12-04T11:26:14;27.45;;;13.05;;
42662;SDS011;44330;51.360;6.686;2022-12-04T11:28:47;24.35;;;12.32;;
42662;SDS011;44330;51.360;6.686;2022-12-04T11:31:18;27.90;;;12.55;;
42662;SDS011;44330;51.360;6.686;2022-12-04T11:33:47;19.92;;;9.95;;
42662;SDS011;44330;51.360;6.686;2022-12-04T11:36:23;24.08;;;12.10;;
42662;SDS011;44330;51.360;6.686;2022-12-04T11:39:03;25.63;;;12.93;;
42662;SDS011;44330;51.360;6.686;2022-12-04T11:43:57;23.17;;;11.35;;
42662;SDS011;44330;51.360;6.686;2022-12-04T11:46:24;22.92;;;12.30;;
42662;SDS011;44330;51.360;6.686;2022-12-04T11:48:52;29.00;;;13.63;;
42662;SDS011;44330;51.360;6.686;2022-12-04T11:54:42;23.75;;;12.70;;
42662;SDS011;44330;51.360;6.686;2022-12-04T12:02:29;25.52;;;12.15;;
42662;SDS011;44330;51.360;6.686;2022-12-04T12:05:18;22.73;;;12.30;;
42662;SDS011;44330;51.360;6.686;2022-12-04T12:07:57;31.52;;;13.32;;
42662;SDS011;44330;51.360;6.686;2022-12-04T12:13:14;28.23;;;13.60;;
42662;SDS011;44330;51.360;6.686;2022-12-04T12:15:59;27.30;;;13.90;;
42662;SDS011;44330;51.360;6.686;2022-12-04T12:34:41;53.40;;;16.23;;
42662;SDS011;44330;51.360;6.686;2022-12-04T12:37:20;29.25;;;13.60;;
42662;SDS011;44330;51.360;6.686;2022-12-04T12:39:49;28.45;;;14.13;;
42662;SDS011;44330;51.360;6.686;2022-12-04T12:42:24;28.52;;;14.35;;
42662;SDS011;44330;51.360;6.686;2022-12-04T12:45:23;29.70;;;15.07;;
42662;SDS011;44330;51.360;6.686;2022-12-04T12:47:51;29.83;;;15.20;;
42662;SDS011;44330;51.360;6.686;2022-12-04T12:50:21;32.25;;;15.07;;
42662;SDS011;44330;51.360;6.686;2022-12-04T12:52:59;34.33;;;16.15;;
42662;SDS011;44330;51.360;6.686;2022-12-04T12:55:51;29.15;;;14.68;;
42662;SDS011;44330;51.360;6.686;2022-12-04T12:58:32;29.60;;;13.73;;
42662;SDS011;44330;51.360;6.686;2022-12-04T13:04:07;28.52;;;13.70;;
42662;SDS011;44330;51.360;6.686;2022-12-04T13:06:43;31.23;;;13.95;;
42662;SDS011;44330;51.360;6.686;2022-12-04T13:09:16;27.15;;;12.88;;
42662;SDS011;44330;51.360;6.686;2022-12-04T13:11:49;23.60;;;10.73;;
42662;SDS011;44330;51.360;6.686;2022-12-04T13:14:17;24.58;;;10.35;;
42662;SDS011;44330;51.360;6.686;2022-12-04T13:16:44;27.27;;;13.45;;
42662;SDS011;44330;51.360;6.686;2022-12-04T13:25:16;29.48;;;13.60;;
42662;SDS011;44330;51.360;6.686;2022-12-04T13:36:34;29.50;;;13.50;;
42662;SDS011;44330;51.360;6.686;2022-12-04T13:41:57;29.70;;;13.77;;
42662;SDS011;44330;51.360;6.686;2022-12-04T13:44:25;29.92;;;13.43;;
42662;SDS011;44330;51.360;6.686;2022-12-04T13:49:32;28.17;;;13.63;;
42662;SDS011;44330;51.360;6.686;2022-12-04T13:52:01;31.73;;;13.93;;
42662;SDS011;44330;51.360;6.686;2022-12-04T13:54:32;28.45;;;13.63;;
42662;SDS011;44330;51.360;6.686;2022-12-04T14:00:02;30.98;;;14.15;;
42662;SDS011;44330;51.360;6.686;2022-12-04T14:02:31;30.65;;;15.10;;
42662;SDS011;44330;51.360;6.686;2022-12-04T14:05:09;29.45;;;14.13;;
42662;SDS011;44330;51.360;6.686;2022-12-04T14:07:36;30.83;;;14.65;;
42662;SDS011;44330;51.360;6.686;2022-12-04T14:10:55;31.67;;;15.27;;
42662;SDS011;44330;51.360;6.686;2022-12-04T14:13:03;34.47;;;15.57;;
42662;SDS011;44330;51.360;6.686;2022-12-04T14:15:33;31.88;;;14.38;;
42662;SDS011;44330;51.360;6.686;2022-12-04T14:20:35;34.65;;;15.73;;
42662;SDS011;44330;51.360;6.686;2022-12-04T14:25:40;39.33;;;17.40;;
42662;SDS011;44330;51.360;6.686;2022-12-04T14:28:22;37.90;;;16.77;;
42662;SDS011;44330;51.360;6.686;2022-12-04T14:31:49;35.92;;;16.75;;
42662;SDS011;44330;51.360;6.686;2022-12-04T14:33:58;32.05;;;15.15;;
42662;SDS011;44330;51.360;6.686;2022-12-04T14:36:40;30.58;;;15.25;;
42662;SDS011;44330;51.360;6.686;2022-12-04T14:39:10;29.45;;;15.13;;
42662;SDS011;44330;51.360;6.686;2022-12-04T14:41:42;33.53;;;15.45;;
42662;SDS011;44330;51.360;6.686;2022-12-04T14:44:16;34.60;;;16.05;;
42662;SDS011;44330;51.360;6.686;2022-12-04T14:46:53;28.77;;;14.70;;
42662;SDS011;44330;51.360;6.686;2022-12-04T14:59:59;29.73;;;14.27;;
42662;SDS011;44330;51.360;6.686;2022-12-04T15:02:38;27.35;;;14.23;;
42662;SDS011;44330;51.360;6.686;2022-12-04T15:05:08;29.08;;;14.73;;
42662;SDS011;44330;51.360;6.686;2022-12-04T15:07:35;26.63;;;13.93;;
42662;SDS011;44330;51.360;6.686;2022-12-04T15:10:01;30.33;;;15.82;;
42662;SDS011;44330;51.360;6.686;2022-12-04T15:13:00;35.00;;;15.07;;
42662;SDS011;44330;51.360;6.686;2022-12-04T15:15:27;27.98;;;15.07;;
42662;SDS011;44330;51.360;6.686;2022-12-04T15:20:31;27.38;;;13.98;;
42662;SDS011;44330;51.360;6.686;2022-12-04T15:23:00;23.90;;;13.35;;
42662;SDS011;44330;51.360;6.686;2022-12-04T15:25:27;28.55;;;13.90;;
42662;SDS011;44330;51.360;6.686;2022-12-04T15:28:01;27.98;;;14.85;;
42662;SDS011;44330;51.360;6.686;2022-12-04T15:30:30;25.98;;;13.88;;
42662;SDS011;44330;51.360;6.686;2022-12-04T15:32:59;24.50;;;12.35;;
42662;SDS011;44330;51.360;6.686;2022-12-04T15:35:26;24.05;;;13.30;;
42662;SDS011;44330;51.360;6.686;2022-12-04T15:37:56;27.10;;;13.68;;
42662;SDS011;44330;51.360;6.686;2022-12-04T15:40:24;26.05;;;14.10;;
42662;SDS011;44330;51.360;6.686;2022-12-04T15:42:51;26.30;;;13.38;;
42662;SDS011;44330;51.360;6.686;2022-12-04T15:55:39;24.15;;;14.18;;
42662;SDS011;44330;51.360;6.686;2022-12-04T15:58:20;28.17;;;15.30;;
42662;SDS011;44330;51.360;6.686;2022-12-04T16:00:55;28.35;;;14.13;;
42662;SDS011;44330;51.360;6.686;2022-12-04T16:08:30;24.02;;;13.15;;
42662;SDS011;44330;51.360;6.686;2022-12-04T16:11:02;27.02;;;14.57;;
42662;SDS011;44330;51.360;6.686;2022-12-04T16:13:47;28.05;;;13.73;;
42662;SDS011;44330;51.360;6.686;2022-12-04T16:16:15;22.67;;;11.48;;
42662;SDS011;44330;51.360;6.686;2022-12-04T16:18:44;23.42;;;13.20;;
42662;SDS011;44330;51.360;6.686;2022-12-04T16:21:12;31.73;;;16.00;;
42662;SDS011;44330;51.360;6.686;2022-12-04T16:23:40;29.83;;;16.05;;
42662;SDS011;44330;51.360;6.686;2022-12-04T16:26:12;26.63;;;14.20;;
42662;SDS011;44330;51.360;6.686;2022-12-04T16:28:40;31.77;;;16.30;;
42662;SDS011;44330;51.360;6.686;2022-12-04T16:31:06;27.48;;;13.73;;
42662;SDS011;44330;51.360;6.686;2022-12-04T16:33:34;33.33;;;15.98;;
42662;SDS011;44330;51.360;6.686;2022-12-04T16:36:00;32.45;;;16.48;;
42662;SDS011;44330;51.360;6.686;2022-12-04T16:38:25;30.00;;;15.65;;
42662;SDS011;44330;51.360;6.686;2022-12-04T16:40:51;30.90;;;15.05;;
42662;SDS011;44330;51.360;6.686;2022-12-04T16:43:16;31.30;;;16.17;;
42662;SDS011;44330;51.360;6.686;2022-12-04T16:45:43;37.95;;;20.35;;
42662;SDS011;44330;51.360;6.686;2022-12-04T16:48:14;43.28;;;20.73;;
42662;SDS011;44330;51.360;6.686;2022-12-04T16:50:40;38.13;;;18.10;;
42662;SDS011;44330;51.360;6.686;2022-12-04T16:53:06;36.28;;;17.40;;
42662;SDS011;44330;51.360;6.686;2022-12-04T16:55:36;36.60;;;17.30;;
42662;SDS011;44330;51.360;6.686;2022-12-04T16:58:05;34.20;;;16.70;;
42662;SDS011;44330;51.360;6.686;2022-12-04T17:00:32;36.88;;;19.00;;
42662;SDS011;44330;51.360;6.686;2022-12-04T17:02:58;34.58;;;16.73;;
42662;SDS011;44330;51.360;6.686;2022-12-04T17:05:26;35.40;;;17.08;;
42662;SDS011;44330;51.360;6.686;2022-12-04T17:07:53;35.83;;;17.10;;
42662;SDS011;44330;51.360;6.686;2022-12-04T17:10:20;36.47;;;18.13;;